Time;durP1;ratioP1;P1;durP2;ratioP2;P2;SDS_P1;SDS_P2;PMS_P1;PMS_P2;Temp;Humidity;BMP_temperature;BMP_pressure;BME280_temperature;BME280_humidity;BME280_pressure;Samples;Min_cycle;Max_cycle;Signal;HPM_P1;HPM_P2
2021/03/01 00:00:14;;;;;;;1.90;0.98;;;21.70;24.90;;;;;;5102195;28;20084;-75
2021/03/01 00:02:41;;;;;;;2.75;1.00;;;21.60;23.70;;;;;;5100993;28;20028;-75
2021/03/01 00:05:09;;;;;;;2.67;0.82;;;21.60;24.50;;;;;;5096595;28;20445;-75
2021/03/01 00:07:36;;;;;;;1.60;0.80;;;21.60;24.80;;;;;;5097090;28;20028;-74
2021/03/01 00:10:04;;;;;;;1.50;1.00;;;21.60;24.30;;;;;;5101285;28;20106;-76
2021/03/01 00:12:31;;;;;;;0.80;0.70;;;21.60;24.60;;;;;;5102624;28;20459;-76
2021/03/01 00:14:57;;;;;;;3.03;0.70;;;21.50;23.90;;;;;;5105865;28;20103;-76
2021/03/01 00:17:24;;;;;;;2.35;0.98;;;21.50;23.90;;;;;;5098146;28;20553;-74
2021/03/01 00:19:50;;;;;;;3.08;0.80;;;21.50;24.30;;;;;;5083080;28;20035;-76
2021/03/01 00:22:17;;;;;;;3.78;0.75;;;21.40;24.20;;;;;;5097068;28;20023;-76
2021/03/01 00:24:43;;;;;;;1.10;1.00;;;21.40;24.00;;;;;;5095180;28;20032;-76
2021/03/01 00:27:10;;;;;;;4.00;1.05;;;21.60;22.60;;;;;;5104549;28;20028;-73
2021/03/01 00:29:36;;;;;;;1.60;0.80;;;21.40;23.50;;;;;;5099013;28;20075;-74
2021/03/01 00:32:03;;;;;;;1.48;1.00;;;21.50;23.10;;;;;;5105329;28;20031;-74
2021/03/01 00:34:29;;;;;;;2.70;1.30;;;21.40;23.80;;;;;;5101150;28;20054;-75
2021/03/01 00:36:56;;;;;;;2.20;1.20;;;21.30;24.20;;;;;;5102699;28;20036;-76
2021/03/01 00:39:23;;;;;;;3.30;1.25;;;21.20;24.30;;;;;;5099842;28;20031;-75
2021/03/01 00:41:49;;;;;;;5.60;1.58;;;21.30;23.90;;;;;;5103246;28;20398;-74
2021/03/01 00:44:16;;;;;;;5.40;2.50;;;21.40;23.40;;;;;;5106637;28;20084;-75
2021/03/01 00:46:43;;;;;;;6.70;1.95;;;21.20;23.90;;;;;;5105777;28;20055;-74
2021/03/01 00:49:09;;;;;;;9.43;2.22;;;21.20;24.50;;;;;;5100951;28;20418;-75
2021/03/01 00:51:36;;;;;;;8.48;2.35;;;21.20;24.60;;;;;;5088699;28;20086;-74
2021/03/01 00:54:02;;;;;;;3.67;1.45;;;21.40;24.50;;;;;;5102957;28;20059;-74
2021/03/01 00:56:29;;;;;;;6.00;2.17;;;21.70;24.10;;;;;;5093376;28;20028;-74
2021/03/01 00:58:55;;;;;;;12.50;3.10;;;21.50;24.80;;;;;;5098760;28;20034;-74
2021/03/01 01:01:22;;;;;;;7.68;2.15;;;21.40;25.50;;;;;;5098615;28;20112;-74
2021/03/01 01:03:48;;;;;;;7.65;2.30;;;21.00;26.00;;;;;;5098864;28;20031;-74
2021/03/01 01:06:15;;;;;;;5.72;2.40;;;20.80;26.70;;;;;;5092655;28;20038;-74
2021/03/01 01:08:41;;;;;;;8.35;2.85;;;20.60;27.10;;;;;;5096748;28;21767;-75
2021/03/01 01:11:07;;;;;;;6.63;2.20;;;20.50;27.80;;;;;;5096118;28;20036;-77
2021/03/01 01:13:34;;;;;;;5.43;1.90;;;20.50;27.10;;;;;;5097139;28;20032;-75
2021/03/01 01:16:01;;;;;;;8.55;2.40;;;20.30;27.00;;;;;;5098863;28;20032;-75
2021/03/01 01:18:28;;;;;;;7.40;2.80;;;20.10;27.40;;;;;;5101685;28;20028;-75
2021/03/01 01:20:54;;;;;;;8.32;2.17;;;20.20;28.00;;;;;;5092638;28;20036;-76
2021/03/01 01:23:21;;;;;;;9.90;2.80;;;20.10;28.10;;;;;;5096262;28;20721;-75
2021/03/01 01:25:48;;;;;;;7.93;2.85;;;19.90;28.10;;;;;;5098932;28;21663;-75
2021/03/01 01:28:14;;;;;;;6.30;2.90;;;19.90;28.50;;;;;;5094896;28;20035;-75
2021/03/01 01:30:41;;;;;;;6.43;2.28;;;19.80;28.70;;;;;;5104132;28;20039;-75
2021/03/01 01:33:07;;;;;;;8.43;2.50;;;19.60;29.00;;;;;;5102834;28;20044;-75
2021/03/01 01:35:34;;;;;;;8.30;2.70;;;19.70;29.20;;;;;;5097138;28;20020;-74
2021/03/01 01:38:00;;;;;;;3.25;1.80;;;19.60;29.40;;;;;;5098690;28;20047;-75
2021/03/01 01:40:27;;;;;;;8.70;2.97;;;19.50;29.60;;;;;;5098829;28;20365;-76
2021/03/01 01:42:54;;;;;;;10.48;2.88;;;19.40;30.00;;;;;;5100089;28;20383;-74
2021/03/01 01:45:23;;;;;;;9.10;2.80;;;19.30;30.00;;;;;;5101836;28;20020;-75
2021/03/01 01:47:51;;;;;;;14.85;2.92;;;19.30;30.50;;;;;;5099465;28;20028;-75
2021/03/01 01:50:19;;;;;;;9.70;2.97;;;19.20;30.90;;;;;;5098046;28;20077;-74
2021/03/01 01:52:50;;;;;;;8.70;2.92;;;19.20;30.50;;;;;;5101816;28;20429;-74
2021/03/01 01:55:18;;;;;;;11.13;3.00;;;19.20;30.50;;;;;;5097005;28;20051;-76
2021/03/01 01:57:44;;;;;;;6.82;3.13;;;19.20;30.50;;;;;;5099267;28;20043;-74
2021/03/01 02:00:30;;;;;;;7.97;3.22;;;19.10;30.20;;;;;;5094971;28;20033;-74
2021/03/01 02:03:16;;;;;;;6.65;3.78;;;19.00;30.50;;;;;;5092640;28;20368;-74
2021/03/01 02:05:43;;;;;;;8.88;4.07;;;18.90;30.60;;;;;;5096121;28;20024;-75
2021/03/01 02:08:40;;;;;;;7.45;2.40;;;18.80;30.90;;;;;;5101475;28;20017;-75
2021/03/01 02:11:20;;;;;;;9.13;2.75;;;18.70;30.50;;;;;;5100228;28;20038;-76
2021/03/01 02:14:14;;;;;;;7.55;2.20;;;18.50;30.80;;;;;;5103086;28;20035;-75
2021/03/01 02:16:41;;;;;;;4.38;1.75;;;18.30;31.30;;;;;;5089143;28;20093;-75
2021/03/01 02:19:08;;;;;;;6.22;3.03;;;18.10;31.40;;;;;;5097954;28;20031;-74
2021/03/01 02:21:47;;;;;;;9.52;3.03;;;18.10;31.00;;;;;;5100082;28;20028;-75
2021/03/01 02:24:17;;;;;;;8.88;2.63;;;18.00;31.40;;;;;;5098707;28;20119;-73
2021/03/01 02:26:47;;;;;;;9.30;2.38;;;17.80;31.90;;;;;;5098569;28;20025;-74
2021/03/01 02:29:17;;;;;;;6.57;3.55;;;17.60;31.50;;;;;;5100441;28;20391;-74
2021/03/01 02:31:46;;;;;;;10.05;2.97;;;17.60;31.40;;;;;;5098588;28;20027;-73
2021/03/01 02:34:17;;;;;;;10.98;3.60;;;17.50;31.50;;;;;;5094934;28;20345;-73
2021/03/01 02:37:15;;;;;;;9.38;2.58;;;17.40;31.70;;;;;;5100602;28;20101;-75
2021/03/01 02:39:44;;;;;;;7.97;2.83;;;17.20;31.80;;;;;;5077910;28;20365;-75
2021/03/01 02:42:14;;;;;;;5.60;2.70;;;17.00;32.20;;;;;;5097421;28;20031;-74
2021/03/01 02:44:43;;;;;;;9.27;3.00;;;16.90;32.20;;;;;;5102412;28;20496;-72
2021/03/01 02:47:10;;;;;;;7.53;2.67;;;16.80;33.10;;;;;;5098466;28;20472;-74
2021/03/01 02:49:39;;;;;;;8.65;3.17;;;16.60;32.50;;;;;;5102107;28;20403;-74
2021/03/01 02:52:07;;;;;;;9.55;3.13;;;16.40;33.10;;;;;;5099304;28;20054;-75
2021/03/01 02:54:34;;;;;;;4.65;2.67;;;16.40;32.40;;;;;;5097895;28;20115;-74
2021/03/01 02:57:01;;;;;;;8.70;2.60;;;16.40;32.50;;;;;;5091776;28;20020;-73
2021/03/01 02:59:29;;;;;;;9.20;2.63;;;16.50;32.10;;;;;;5089084;28;20048;-74
2021/03/01 03:01:57;;;;;;;6.20;2.47;;;16.40;32.00;;;;;;5091726;28;20155;-76
2021/03/01 03:04:25;;;;;;;12.48;3.70;;;16.60;31.70;;;;;;5096490;28;20464;-75
2021/03/01 03:06:52;;;;;;;3.92;2.20;;;16.40;31.40;;;;;;5098938;28;20024;-76
2021/03/01 03:09:20;;;;;;;3.65;2.20;;;16.30;31.40;;;;;;5100815;28;20020;-75
2021/03/01 03:11:48;;;;;;;4.55;2.45;;;16.30;31.40;;;;;;5096373;28;20464;-76
2021/03/01 03:14:19;;;;;;;6.00;2.50;;;16.30;31.40;;;;;;5094509;28;20020;-75
2021/03/01 03:16:48;;;;;;;4.57;2.45;;;16.20;31.40;;;;;;5091326;28;20043;-75
2021/03/01 03:19:14;;;;;;;7.40;2.30;;;16.20;31.10;;;;;;5100638;28;20106;-76
2021/03/01 03:21:41;;;;;;;5.32;2.00;;;16.00;31.30;;;;;;5097646;28;20030;-76
2021/03/01 03:24:08;;;;;;;5.10;1.85;;;15.90;31.40;;;;;;5104119;28;20027;-75
2021/03/01 03:26:34;;;;;;;3.88;1.95;;;15.90;31.20;;;;;;5103990;28;20035;-76
2021/03/01 03:29:01;;;;;;;4.95;2.03;;;16.00;30.80;;;;;;5101484;28;20488;-76
2021/03/01 03:31:27;;;;;;;5.22;2.20;;;15.90;30.70;;;;;;5097541;28;20515;-75
2021/03/01 03:33:54;;;;;;;3.85;1.90;;;15.70;31.10;;;;;;5098693;28;20036;-76
2021/03/01 03:36:27;;;;;;;8.20;3.63;;;15.80;31.00;;;;;;5098392;28;20036;-76
2021/03/01 03:39:09;;;;;;;5.30;2.42;;;15.80;31.00;;;;;;5100467;28;20028;-76
2021/03/01 03:41:37;;;;;;;7.05;2.60;;;15.80;31.10;;;;;;5101757;28;20160;-76
2021/03/01 03:44:09;;;;;;;4.80;2.15;;;15.70;31.50;;;;;;5101491;28;20042;-75
2021/03/01 03:46:37;;;;;;;5.10;2.20;;;15.70;31.60;;;;;;5102403;28;20077;-76
2021/03/01 03:49:06;;;;;;;8.07;2.35;;;15.60;31.90;;;;;;5095881;28;20020;-76
2021/03/01 03:51:35;;;;;;;5.47;2.60;;;15.70;31.80;;;;;;5101079;28;20054;-76
2021/03/01 03:54:24;;;;;;;9.00;2.28;;;15.60;32.40;;;;;;5103313;28;20077;-74
2021/03/01 03:56:55;;;;;;;12.52;2.35;;;15.60;32.30;;;;;;5104034;28;20046;-74
2021/03/01 03:59:32;;;;;;;8.57;2.28;;;15.50;33.10;;;;;;5106225;28;20031;-75
2021/03/01 04:01:59;;;;;;;6.68;1.90;;;15.50;32.90;;;;;;5102644;28;20024;-76
2021/03/01 04:04:27;;;;;;;7.75;2.25;;;15.40;32.80;;;;;;5101810;28;20080;-74
2021/03/01 04:06:57;;;;;;;10.13;2.63;;;15.40;33.40;;;;;;5105087;28;20503;-74
2021/03/01 04:09:26;;;;;;;8.10;3.13;;;15.20;33.80;;;;;;5100682;28;20477;-74
2021/03/01 04:11:53;;;;;;;4.35;2.15;;;15.20;33.70;;;;;;5103581;28;20030;-74
2021/03/01 04:14:25;;;;;;;6.78;2.85;;;15.20;33.90;;;;;;5106373;28;20024;-74
2021/03/01 04:17:05;;;;;;;7.53;2.00;;;15.20;33.90;;;;;;5097238;28;20111;-74
2021/03/01 04:19:34;;;;;;;5.60;2.03;;;15.20;33.50;;;;;;5107557;28;20032;-74
2021/03/01 04:22:01;;;;;;;6.00;2.55;;;15.00;33.40;;;;;;5104464;28;20027;-75
2021/03/01 04:24:30;;;;;;;4.93;2.10;;;15.00;33.40;;;;;;5107774;28;20065;-74
2021/03/01 04:26:59;;;;;;;7.72;2.67;;;15.00;33.00;;;;;;5106807;28;20043;-75
2021/03/01 04:29:27;;;;;;;8.15;3.25;;;15.00;33.20;;;;;;5103282;28;20458;-75
2021/03/01 04:31:55;;;;;;;7.88;2.17;;;15.00;33.30;;;;;;5104583;28;20027;-74
2021/03/01 04:34:22;;;;;;;8.20;2.60;;;14.70;33.70;;;;;;5105539;28;20055;-74
2021/03/01 04:36:49;;;;;;;9.15;2.67;;;14.60;34.20;;;;;;5104650;28;20030;-74
2021/03/01 04:39:16;;;;;;;10.63;3.92;;;14.60;34.40;;;;;;5105085;28;20070;-75
2021/03/01 04:41:45;;;;;;;11.40;3.58;;;14.60;35.40;;;;;;5107274;28;20449;-74
2021/03/01 04:44:14;;;;;;;5.63;2.47;;;14.70;35.40;;;;;;5101607;28;20031;-74
2021/03/01 04:46:44;;;;;;;9.43;2.45;;;14.60;35.70;;;;;;5103950;28;20068;-74
2021/03/01 04:49:11;;;;;;;10.23;2.92;;;14.50;35.70;;;;;;5106263;28;20029;-74
2021/03/01 04:51:39;;;;;;;11.27;2.60;;;14.60;36.10;;;;;;5105944;28;20343;-75
2021/03/01 04:54:06;;;;;;;9.23;2.75;;;14.60;36.50;;;;;;5094578;28;20277;-74
2021/03/01 04:56:33;;;;;;;8.68;3.25;;;14.50;36.40;;;;;;5101645;28;20047;-74
2021/03/01 04:59:01;;;;;;;6.82;2.55;;;14.50;36.20;;;;;;5095774;28;20039;-73
2021/03/01 05:01:28;;;;;;;8.20;3.20;;;14.50;35.90;;;;;;5103063;28;20084;-73
2021/03/01 05:03:55;;;;;;;7.13;2.90;;;14.50;36.80;;;;;;5095124;28;20019;-73
2021/03/01 05:06:22;;;;;;;7.65;2.50;;;14.50;36.00;;;;;;5097649;28;20030;-73
2021/03/01 05:08:50;;;;;;;8.77;2.55;;;14.30;36.10;;;;;;5098957;28;20073;-73
2021/03/01 05:11:45;;;;;;;7.60;2.55;;;14.30;36.30;;;;;;5099369;28;20065;-74
2021/03/01 05:14:12;;;;;;;5.75;2.63;;;14.20;36.20;;;;;;5091528;28;20043;-74
2021/03/01 05:16:38;;;;;;;5.20;2.40;;;14.10;36.20;;;;;;5103115;28;20149;-74
2021/03/01 05:19:05;;;;;;;11.20;2.28;;;14.20;36.10;;;;;;5099808;28;20032;-73
2021/03/01 05:21:31;;;;;;;5.07;2.50;;;14.20;35.90;;;;;;5098413;28;20038;-73
2021/03/01 05:23:58;;;;;;;8.90;2.10;;;14.30;36.40;;;;;;5103382;28;20028;-73
2021/03/01 05:26:24;;;;;;;4.15;2.55;;;14.20;35.90;;;;;;5102924;28;20028;-73
2021/03/01 05:28:51;;;;;;;9.43;2.25;;;14.30;35.70;;;;;;5101365;28;20345;-73
2021/03/01 05:31:17;;;;;;;6.10;2.53;;;14.20;35.50;;;;;;5097577;28;20032;-73
2021/03/01 05:33:45;;;;;;;11.02;2.25;;;14.10;35.40;;;;;;5091464;27;20369;-73
2021/03/01 05:36:13;;;;;;;4.35;1.98;;;14.00;35.60;;;;;;5097972;28;20036;-75
2021/03/01 05:38:39;;;;;;;8.65;2.92;;;14.10;36.10;;;;;;5099652;28;20052;-77
2021/03/01 05:41:07;;;;;;;9.27;2.80;;;14.10;36.30;;;;;;5097935;28;20028;-74
2021/03/01 05:43:34;;;;;;;5.35;2.67;;;14.00;36.00;;;;;;5097118;28;20347;-73
2021/03/01 05:46:01;;;;;;;7.15;2.45;;;13.90;36.80;;;;;;5097192;28;20028;-74
2021/03/01 05:48:29;;;;;;;6.05;2.40;;;13.80;36.50;;;;;;5098581;28;20016;-73
2021/03/01 05:50:58;;;;;;;7.57;3.20;;;14.10;37.00;;;;;;5101787;28;20461;-74
2021/03/01 05:53:32;;;;;;;5.18;2.25;;;14.00;36.70;;;;;;5104210;28;20027;-73
2021/03/01 05:56:02;;;;;;;8.60;2.70;;;13.90;36.60;;;;;;5103514;28;20035;-73
2021/03/01 05:58:29;;;;;;;7.20;3.63;;;13.90;37.30;;;;;;5102091;28;20020;-75
2021/03/01 06:01:01;;;;;;;12.93;4.20;;;13.80;37.50;;;;;;5100848;28;20032;-73
2021/03/01 06:03:35;;;;;;;8.35;2.33;;;13.80;38.10;;;;;;5100827;28;20094;-75
2021/03/01 06:06:03;;;;;;;8.45;2.13;;;13.90;37.80;;;;;;5102737;28;20024;-75
2021/03/01 06:08:33;;;;;;;11.98;3.35;;;13.80;38.30;;;;;;5097562;28;20020;-74
2021/03/01 06:11:05;;;;;;;9.55;2.45;;;13.70;37.80;;;;;;5092282;28;20030;-74
2021/03/01 06:13:32;;;;;;;10.80;4.90;;;13.60;38.50;;;;;;5080710;28;20039;-74
2021/03/01 06:16:01;;;;;;;6.20;2.90;;;13.50;38.80;;;;;;5099203;28;20031;-74
2021/03/01 06:18:28;;;;;;;10.00;3.78;;;13.60;39.70;;;;;;5102373;28;20019;-74
2021/03/01 06:21:07;;;;;;;5.78;2.72;;;13.40;38.70;;;;;;5101714;28;20023;-73
2021/03/01 06:23:36;;;;;;;10.20;2.95;;;13.30;39.50;;;;;;5101188;28;20035;-75
2021/03/01 06:26:31;;;;;;;9.70;2.90;;;13.50;40.40;;;;;;5099664;28;20026;-73
2021/03/01 06:29:04;;;;;;;11.23;3.95;;;13.40;40.00;;;;;;5099332;28;20055;-73
2021/03/01 06:31:41;;;;;;;7.65;2.88;;;13.30;40.00;;;;;;5103076;28;20047;-73
2021/03/01 06:34:35;;;;;;;14.65;3.50;;;13.30;40.60;;;;;;5103823;28;20142;-75
2021/03/01 06:37:16;;;;;;;14.82;4.07;;;13.30;40.60;;;;;;5101731;28;20031;-73
2021/03/01 06:39:51;;;;;;;7.03;2.97;;;13.10;40.20;;;;;;5102987;28;20028;-73
2021/03/01 06:42:23;;;;;;;11.52;2.83;;;13.10;41.00;;;;;;5101753;28;20422;-73
2021/03/01 06:45:10;;;;;;;11.80;2.97;;;13.00;41.10;;;;;;5103879;28;20359;-73
2021/03/01 06:47:51;;;;;;;8.18;2.05;;;12.90;41.20;;;;;;5099943;28;20050;-73
2021/03/01 06:50:46;;;;;;;9.35;2.92;;;12.80;41.60;;;;;;5103753;28;20019;-76
2021/03/01 06:53:13;;;;;;;4.95;2.10;;;12.70;41.90;;;;;;5098709;28;20045;-75
2021/03/01 06:55:55;;;;;;;6.30;2.67;;;12.60;41.30;;;;;;5088470;28;20020;-74
2021/03/01 06:58:24;;;;;;;9.02;2.67;;;12.20;40.50;;;;;;5097757;28;20595;-74
2021/03/01 07:01:00;;;;;;;9.45;3.08;;;12.10;41.90;;;;;;5103340;28;20035;-73
2021/03/01 07:03:26;;;;;;;9.40;3.03;;;12.20;42.50;;;;;;5094426;28;21248;-75
2021/03/01 07:05:55;;;;;;;5.97;2.10;;;12.10;41.90;;;;;;5098670;28;20093;-76
2021/03/01 07:08:48;;;;;;;9.82;2.40;;;11.90;41.70;;;;;;5103300;28;20449;-75
2021/03/01 07:11:34;;;;;;;4.05;2.08;;;11.70;41.60;;;;;;5097012;28;20028;-75
2021/03/01 07:14:06;;;;;;;9.02;2.75;;;11.60;41.50;;;;;;5100901;28;20480;-73
2021/03/01 07:16:36;;;;;;;9.90;2.60;;;11.60;42.40;;;;;;5103909;28;20031;-75
2021/03/01 07:19:06;;;;;;;5.95;2.50;;;11.80;43.00;;;;;;5102469;28;20465;-73
2021/03/01 07:21:33;;;;;;;4.97;2.38;;;11.90;43.20;;;;;;5103547;28;20028;-72
2021/03/01 07:23:59;;;;;;;7.65;2.85;;;11.90;43.50;;;;;;5101598;28;20048;-73
2021/03/01 07:26:27;;;;;;;11.63;3.58;;;11.90;43.00;;;;;;5104914;28;20093;-73
2021/03/01 07:29:00;;;;;;;7.70;3.20;;;11.80;43.90;;;;;;5105595;28;20445;-72
2021/03/01 07:31:28;;;;;;;3.92;2.50;;;11.70;43.50;;;;;;5106474;28;20453;-73
2021/03/01 07:33:55;;;;;;;5.32;2.55;;;11.70;43.60;;;;;;5106152;28;20421;-73
2021/03/01 07:36:22;;;;;;;9.45;4.10;;;11.70;43.70;;;;;;5100910;28;20020;-76
2021/03/01 07:38:49;;;;;;;7.07;3.15;;;11.70;43.70;;;;;;5099829;28;20029;-74
2021/03/01 07:41:15;;;;;;;6.38;2.67;;;11.60;43.20;;;;;;5090165;28;20531;-73
2021/03/01 07:43:43;;;;;;;6.00;2.38;;;11.60;43.50;;;;;;5103349;28;20449;-73
2021/03/01 07:46:11;;;;;;;7.82;2.85;;;11.50;43.80;;;;;;5106563;28;20468;-74
2021/03/01 07:48:43;;;;;;;7.05;2.97;;;11.40;43.80;;;;;;5107542;28;20027;-73
2021/03/01 07:51:11;;;;;;;7.60;2.80;;;11.40;44.20;;;;;;5107802;28;20345;-73
2021/03/01 07:53:50;;;;;;;6.20;2.40;;;11.40;44.40;;;;;;5106453;28;20085;-73
2021/03/01 07:56:25;;;;;;;9.27;2.92;;;11.40;44.10;;;;;;5100714;28;20032;-73
2021/03/01 07:59:22;;;;;;;5.25;2.03;;;11.40;43.90;;;;;;5108538;28;20030;-73
2021/03/01 08:02:08;;;;;;;6.05;2.70;;;11.20;43.70;;;;;;5103521;28;20032;-73
2021/03/01 08:04:35;;;;;;;7.15;2.20;;;11.40;44.30;;;;;;5101264;28;20111;-74
2021/03/01 08:07:02;;;;;;;3.97;2.20;;;11.40;44.20;;;;;;5099038;28;20521;-73
2021/03/01 08:09:41;;;;;;;12.45;3.90;;;11.40;44.30;;;;;;5101518;28;20027;-74
2021/03/01 08:12:08;;;;;;;7.85;1.90;;;11.40;44.30;;;;;;5106973;28;20024;-73
2021/03/01 08:14:53;;;;;;;4.15;2.38;;;11.30;44.20;;;;;;5105713;28;20112;-75
2021/03/01 08:17:48;;;;;;;4.93;2.97;;;11.40;44.30;;;;;;5105002;28;20134;-73
2021/03/01 08:20:14;;;;;;;3.85;2.10;;;11.30;44.00;;;;;;5099635;28;20123;-73
2021/03/01 08:23:04;;;;;;;4.05;2.20;;;11.20;44.00;;;;;;5105424;28;20492;-73
2021/03/01 08:25:49;;;;;;;5.20;2.10;;;11.10;43.60;;;;;;5097958;28;20051;-73
2021/03/01 08:28:25;;;;;;;4.93;2.63;;;11.00;44.40;;;;;;5104881;28;20032;-73
2021/03/01 08:30:53;;;;;;;3.67;2.20;;;11.10;43.90;;;;;;5106123;28;20076;-73
2021/03/01 08:33:22;;;;;;;9.60;2.03;;;10.90;44.70;;;;;;5106166;28;20656;-73
2021/03/01 08:35:55;;;;;;;6.63;2.60;;;10.80;44.60;;;;;;5105481;28;20031;-73
2021/03/01 08:38:43;;;;;;;3.30;2.75;;;11.00;44.70;;;;;;5105962;28;20020;-73
2021/03/01 08:41:10;;;;;;;5.63;2.22;;;11.00;45.10;;;;;;5107020;28;20051;-73
2021/03/01 08:43:43;;;;;;;8.70;2.90;;;11.00;44.80;;;;;;5104489;28;20038;-74
2021/03/01 08:46:16;;;;;;;4.72;2.50;;;11.00;45.00;;;;;;5102916;28;20430;-73
2021/03/01 08:48:50;;;;;;;5.75;2.60;;;10.90;44.40;;;;;;5105804;28;20020;-73
2021/03/01 08:51:18;;;;;;;6.03;3.05;;;10.80;44.90;;;;;;5106618;28;20422;-73
2021/03/01 08:53:45;;;;;;;5.03;2.42;;;11.00;45.10;;;;;;5105547;28;20458;-73
2021/03/01 08:56:24;;;;;;;8.98;3.05;;;10.90;45.50;;;;;;5103839;28;20110;-73
2021/03/01 08:58:51;;;;;;;9.32;2.60;;;10.90;45.30;;;;;;5106698;28;20027;-73
2021/03/01 09:01:18;;;;;;;6.45;2.85;;;10.90;45.60;;;;;;5106531;28;20023;-73
2021/03/01 09:03:46;;;;;;;5.28;2.55;;;11.00;45.60;;;;;;5104352;28;20025;-73
2021/03/01 09:06:20;;;;;;;3.83;2.17;;;11.00;45.30;;;;;;5098211;28;20071;-74
2021/03/01 09:08:49;;;;;;;5.03;2.53;;;11.00;45.00;;;;;;5102777;28;20024;-73
2021/03/01 09:11:17;;;;;;;7.85;2.63;;;10.90;44.90;;;;;;5104369;28;20020;-73
2021/03/01 09:13:46;;;;;;;5.53;2.42;;;10.90;45.00;;;;;;5102087;28;20024;-73
2021/03/01 09:16:24;;;;;;;4.88;2.75;;;11.00;45.00;;;;;;5105460;28;20027;-73
2021/03/01 09:19:08;;;;;;;6.00;2.10;;;11.00;45.40;;;;;;5102528;28;20519;-73
2021/03/01 09:21:40;;;;;;;2.90;1.98;;;10.90;44.80;;;;;;5105768;28;20027;-72
2021/03/01 09:24:16;;;;;;;6.18;2.47;;;10.80;45.00;;;;;;5104600;28;20024;-73
2021/03/01 09:26:45;;;;;;;2.20;1.95;;;10.60;44.90;;;;;;5102176;28;20361;-73
2021/03/01 09:29:13;;;;;;;9.70;2.60;;;10.50;45.20;;;;;;5104708;28;20024;-73
2021/03/01 09:31:45;;;;;;;5.05;2.20;;;10.60;45.70;;;;;;5102002;28;20097;-73
2021/03/01 09:34:15;;;;;;;7.13;2.40;;;10.70;45.40;;;;;;5103506;28;20020;-74
2021/03/01 09:36:47;;;;;;;5.85;2.33;;;10.60;44.80;;;;;;5105960;28;20028;-74
2021/03/01 09:39:18;;;;;;;;;;;10.60;45.20;;;;;;5102211;28;20110;-76
2021/03/01 09:41:45;;;;;;;7.82;2.75;;;10.60;45.20;;;;;;5103630;28;20261;-75
2021/03/01 09:44:19;;;;;;;5.75;3.10;;;10.40;45.30;;;;;;5101401;28;20027;-74
2021/03/01 09:46:47;;;;;;;6.40;2.15;;;10.30;45.10;;;;;;5103668;28;20032;-74
2021/03/01 09:49:14;;;;;;;8.43;2.65;;;10.30;45.70;;;;;;5103838;28;20092;-74
2021/03/01 09:51:41;;;;;;;4.07;3.05;;;10.30;45.70;;;;;;5105780;28;20019;-74
2021/03/01 09:54:09;;;;;;;4.80;2.33;;;10.20;45.70;;;;;;5099485;28;20513;-74
2021/03/01 09:56:47;;;;;;;6.88;2.45;;;10.20;45.50;;;;;;5104619;28;20036;-74
2021/03/01 09:59:33;;;;;;;4.38;2.20;;;10.20;45.40;;;;;;5104917;28;20431;-74
2021/03/01 10:02:07;;;;;;;4.07;2.22;;;10.00;45.10;;;;;;5103332;28;20071;-74
2021/03/01 10:04:33;;;;;;;5.00;2.60;;;10.10;46.30;;;;;;5102668;28;20111;-75
2021/03/01 10:07:18;;;;;;;3.67;2.53;;;10.30;46.40;;;;;;5101578;28;20020;-74
2021/03/01 10:09:46;;;;;;;3.42;2.55;;;10.30;45.90;;;;;;5096374;28;20110;-74
2021/03/01 10:12:13;;;;;;;5.28;3.08;;;10.10;46.40;;;;;;5105400;28;20041;-74
2021/03/01 10:14:41;;;;;;;3.45;1.95;;;10.00;46.60;;;;;;5098345;28;20042;-74
2021/03/01 10:17:23;;;;;;;6.20;2.83;;;10.00;45.90;;;;;;5103373;28;20110;-74
2021/03/01 10:19:50;;;;;;;6.30;2.25;;;10.00;46.90;;;;;;5104809;28;20112;-74
2021/03/01 10:22:17;;;;;;;5.20;2.50;;;9.90;46.20;;;;;;5103831;28;20043;-74
2021/03/01 10:24:50;;;;;;;7.38;3.20;;;9.90;47.20;;;;;;5105632;28;20045;-74
2021/03/01 10:27:18;;;;;;;3.72;2.50;;;9.90;47.20;;;;;;5104238;28;20038;-74
2021/03/01 10:29:49;;;;;;;3.50;2.30;;;10.00;46.90;;;;;;5104846;28;20070;-74
2021/03/01 10:32:23;;;;;;;7.30;3.10;;;10.00;47.50;;;;;;5104761;28;20038;-74
2021/03/01 10:34:50;;;;;;;8.07;2.63;;;9.90;48.00;;;;;;5104686;28;20054;-74
2021/03/01 10:37:19;;;;;;;5.22;3.10;;;10.00;47.80;;;;;;5103374;28;20023;-74
2021/03/01 10:39:47;;;;;;;8.63;2.65;;;9.90;47.70;;;;;;5103987;28;20480;-74
2021/03/01 10:42:16;;;;;;;2.35;2.10;;;9.80;47.30;;;;;;5103065;28;20081;-74
2021/03/01 10:44:45;;;;;;;7.40;2.55;;;9.80;48.60;;;;;;5103874;28;20028;-74
2021/03/01 10:47:25;;;;;;;6.18;2.70;;;9.90;48.00;;;;;;5103440;28;20138;-74
2021/03/01 10:50:00;;;;;;;7.93;2.97;;;9.80;48.30;;;;;;5101907;28;20157;-74
2021/03/01 10:52:28;;;;;;;3.72;2.53;;;9.70;48.20;;;;;;5102151;28;20028;-74
2021/03/01 10:54:56;;;;;;;5.15;2.63;;;9.80;48.60;;;;;;5105131;28;20020;-74
2021/03/01 10:57:27;;;;;;;8.32;2.63;;;9.80;48.10;;;;;;5103796;28;20080;-74
2021/03/01 10:59:55;;;;;;;11.65;4.18;;;9.70;47.70;;;;;;5102478;28;20020;-74
2021/03/01 11:02:22;;;;;;;6.63;3.28;;;9.70;49.10;;;;;;5105973;28;20047;-74
2021/03/01 11:04:49;;;;;;;3.83;2.72;;;9.70;49.00;;;;;;5104219;28;20019;-74
2021/03/01 11:07:16;;;;;;;3.22;2.25;;;9.60;47.90;;;;;;5106882;28;20038;-74
2021/03/01 11:09:42;;;;;;;6.68;2.53;;;9.60;48.70;;;;;;5107262;28;20064;-74
2021/03/01 11:12:09;;;;;;;8.40;2.50;;;9.70;48.60;;;;;;5108435;28;20024;-74
2021/03/01 11:14:36;;;;;;;3.95;2.50;;;9.60;47.90;;;;;;5103291;28;20028;-74
2021/03/01 11:17:03;;;;;;;4.30;3.25;;;9.70;48.60;;;;;;5109089;28;20400;-75
2021/03/01 11:19:29;;;;;;;4.88;2.55;;;9.70;48.50;;;;;;5108193;28;20024;-74
2021/03/01 11:21:56;;;;;;;10.70;2.75;;;9.70;48.30;;;;;;5106567;28;20081;-74
2021/03/01 11:24:23;;;;;;;5.45;2.83;;;9.60;47.60;;;;;;5106628;28;20131;-74
2021/03/01 11:26:51;;;;;;;7.35;3.03;;;9.60;48.50;;;;;;5107340;28;20024;-74
2021/03/01 11:29:18;;;;;;;8.45;3.80;;;9.70;48.80;;;;;;5107434;28;20438;-74
2021/03/01 11:31:45;;;;;;;5.95;2.67;;;9.60;48.70;;;;;;5108061;28;20391;-74
2021/03/01 11:34:11;;;;;;;7.15;3.10;;;9.60;49.40;;;;;;5108994;28;20028;-74
2021/03/01 11:36:38;;;;;;;2.92;2.05;;;9.70;48.90;;;;;;5109627;28;20468;-75
2021/03/01 11:39:07;;;;;;;3.72;2.22;;;9.70;48.90;;;;;;5105285;28;20047;-77
2021/03/01 11:41:33;;;;;;;4.10;2.67;;;9.60;49.00;;;;;;5106598;28;20049;-74
2021/03/01 11:44:00;;;;;;;3.60;2.40;;;9.70;49.10;;;;;;5104744;28;20051;-74
2021/03/01 11:46:26;;;;;;;6.10;2.55;;;9.60;49.00;;;;;;5100734;28;20027;-74
2021/03/01 11:48:53;;;;;;;4.28;2.25;;;9.50;48.70;;;;;;5096159;28;20025;-75
2021/03/01 11:51:19;;;;;;;7.60;2.35;;;9.60;49.40;;;;;;5108969;28;20237;-75
2021/03/01 11:53:46;;;;;;;6.95;2.72;;;9.60;49.20;;;;;;5105067;28;20039;-74
2021/03/01 11:56:14;;;;;;;5.00;2.42;;;9.50;48.90;;;;;;5108290;28;20024;-75
2021/03/01 11:58:41;;;;;;;3.55;2.90;;;9.40;48.80;;;;;;5107088;28;20327;-75
2021/03/01 12:01:08;;;;;;;4.80;2.28;;;9.30;48.70;;;;;;5104867;28;20028;-75
2021/03/01 12:03:36;;;;;;;5.55;2.88;;;9.40;49.30;;;;;;5106518;28;20038;-74
2021/03/01 12:06:03;;;;;;;8.50;2.97;;;9.40;49.40;;;;;;5106807;28;20465;-74
2021/03/01 12:08:30;;;;;;;8.10;3.58;;;9.40;49.40;;;;;;5105829;28;20025;-75
2021/03/01 12:10:56;;;;;;;2.47;2.20;;;9.20;48.80;;;;;;5102906;28;20023;-74
2021/03/01 12:13:23;;;;;;;8.23;3.13;;;9.30;49.70;;;;;;5104437;28;20420;-75
2021/03/01 12:15:49;;;;;;;3.40;2.47;;;9.30;49.00;;;;;;5101285;28;20490;-74
2021/03/01 12:18:16;;;;;;;4.32;2.53;;;9.20;48.90;;;;;;5105865;28;20047;-75
2021/03/01 12:20:42;;;;;;;6.30;2.75;;;9.10;49.20;;;;;;5105414;28;20024;-75
2021/03/01 12:23:09;;;;;;;9.10;3.47;;;8.90;48.80;;;;;;5104616;28;20424;-74
2021/03/01 12:25:36;;;;;;;7.43;2.83;;;9.00;49.90;;;;;;5104164;28;20020;-74
2021/03/01 12:28:03;;;;;;;3.80;2.38;;;9.20;49.90;;;;;;5106654;28;20020;-74
2021/03/01 12:30:29;;;;;;;4.18;2.53;;;9.10;49.70;;;;;;5105774;28;20046;-75
2021/03/01 12:32:55;;;;;;;3.88;2.97;;;9.20;49.30;;;;;;5105314;28;20032;-74
2021/03/01 12:35:22;;;;;;;9.20;2.97;;;9.20;49.40;;;;;;5103365;28;20039;-75
2021/03/01 12:37:48;;;;;;;4.82;2.35;;;9.10;49.20;;;;;;5106754;28;20097;-78
2021/03/01 12:40:15;;;;;;;5.07;2.80;;;8.80;49.20;;;;;;5103498;28;20449;-75
2021/03/01 12:42:42;;;;;;;5.10;2.65;;;8.90;49.80;;;;;;5104807;28;20035;-75
2021/03/01 12:45:08;;;;;;;5.28;2.78;;;8.80;49.30;;;;;;5106540;28;20094;-78
2021/03/01 12:47:35;;;;;;;5.85;3.35;;;8.70;49.80;;;;;;5104216;28;20035;-75
2021/03/01 12:50:01;;;;;;;8.60;2.83;;;8.80;49.90;;;;;;5106064;28;20058;-75
2021/03/01 12:52:28;;;;;;;6.70;2.53;;;8.90;50.50;;;;;;5103881;28;20176;-74
2021/03/01 12:54:54;;;;;;;2.75;2.40;;;8.90;50.40;;;;;;5105387;28;20032;-75
2021/03/01 12:57:20;;;;;;;5.93;3.00;;;8.80;49.70;;;;;;5105211;28;20392;-75
2021/03/01 12:59:47;;;;;;;3.67;3.08;;;8.80;49.40;;;;;;5106452;28;20077;-74
2021/03/01 13:02:13;;;;;;;3.22;2.78;;;8.70;50.20;;;;;;5105864;28;20060;-74